sensor_id;sensor_type;location;lat;lon;timestamp;pressure;altitude;pressure_sealevel;temperature;humidity
71476;BME280;59286;59.274;17.974;2023-01-31T00:01:18;98983.97;;;1.17;65.46
71476;BME280;59286;59.274;17.974;2023-01-31T00:03:44;99037.66;;;1.43;64.94
71476;BME280;59286;59.274;17.974;2023-01-31T00:06:22;99025.41;;;1.30;64.51
71476;BME280;59286;59.274;17.974;2023-01-31T00:08:49;98985.91;;;1.01;64.90
71476;BME280;59286;59.274;17.974;2023-01-31T00:11:18;99035.00;;;1.25;64.85
71476;BME280;59286;59.274;17.974;2023-01-31T00:13:44;99031.38;;;1.26;65.41
71476;BME280;59286;59.274;17.974;2023-01-31T00:16:11;99059.41;;;1.37;65.57
71476;BME280;59286;59.274;17.974;2023-01-31T00:18:37;99053.22;;;1.33;65.39
71476;BME280;59286;59.274;17.974;2023-01-31T00:21:11;99005.28;;;0.98;64.33
71476;BME280;59286;59.274;17.974;2023-01-31T00:23:38;99051.50;;;1.24;65.44
71476;BME280;59286;59.274;17.974;2023-01-31T00:26:12;99064.09;;;1.30;65.49
71476;BME280;59286;59.274;17.974;2023-01-31T00:28:38;99022.63;;;0.88;65.41
71476;BME280;59286;59.274;17.974;2023-01-31T00:31:03;99056.25;;;1.12;65.63
71476;BME280;59286;59.274;17.974;2023-01-31T00:33:29;99026.25;;;0.87;65.36
71476;BME280;59286;59.274;17.974;2023-01-31T00:35:54;99067.81;;;1.14;65.74
71476;BME280;59286;59.274;17.974;2023-01-31T00:38:20;99036.28;;;0.88;65.93
71476;BME280;59286;59.274;17.974;2023-01-31T00:40:52;99076.97;;;1.02;66.27
71476;BME280;59286;59.274;17.974;2023-01-31T00:43:18;99015.81;;;0.68;66.37
71476;BME280;59286;59.274;17.974;2023-01-31T00:45:43;99066.41;;;0.98;66.10
71476;BME280;59286;59.274;17.974;2023-01-31T00:48:10;99091.56;;;1.16;66.21
71476;BME280;59286;59.274;17.974;2023-01-31T00:50:35;99092.16;;;1.08;66.41
71476;BME280;59286;59.274;17.974;2023-01-31T00:53:00;99055.19;;;0.79;66.63
71476;BME280;59286;59.274;17.974;2023-01-31T00:55:27;99061.41;;;0.78;66.77
71476;BME280;59286;59.274;17.974;2023-01-31T00:57:52;99084.06;;;0.81;66.84
71476;BME280;59286;59.274;17.974;2023-01-31T01:00:17;99114.91;;;0.96;66.90
71476;BME280;59286;59.274;17.974;2023-01-31T01:02:43;99107.97;;;0.91;67.32
71476;BME280;59286;59.274;17.974;2023-01-31T01:05:08;99111.03;;;0.98;67.04
71476;BME280;59286;59.274;17.974;2023-01-31T01:07:34;99109.28;;;0.89;67.13
71476;BME280;59286;59.274;17.974;2023-01-31T01:09:59;99115.75;;;0.86;67.70
71476;BME280;59286;59.274;17.974;2023-01-31T01:12:25;99099.59;;;0.66;67.74
71476;BME280;59286;59.274;17.974;2023-01-31T01:14:50;99124.28;;;0.82;67.62
71476;BME280;59286;59.274;17.974;2023-01-31T01:17:15;99125.81;;;0.83;67.59
71476;BME280;59286;59.274;17.974;2023-01-31T01:19:41;99115.53;;;0.73;67.93
71476;BME280;59286;59.274;17.974;2023-01-31T01:22:06;99112.72;;;0.69;68.16
71476;BME280;59286;59.274;17.974;2023-01-31T01:24:31;99120.75;;;0.68;68.34
71476;BME280;59286;59.274;17.974;2023-01-31T01:26:57;99118.41;;;0.71;68.31
71476;BME280;59286;59.274;17.974;2023-01-31T01:29:22;99163.72;;;0.87;68.10
71476;BME280;59286;59.274;17.974;2023-01-31T01:31:48;99126.91;;;0.72;67.93
71476;BME280;59286;59.274;17.974;2023-01-31T01:34:15;99168.84;;;0.92;67.96
71476;BME280;59286;59.274;17.974;2023-01-31T01:36:41;99146.47;;;0.78;68.38
71476;BME280;59286;59.274;17.974;2023-01-31T01:39:08;99131.59;;;0.60;68.42
71476;BME280;59286;59.274;17.974;2023-01-31T01:41:35;99158.13;;;0.70;69.32
71476;BME280;59286;59.274;17.974;2023-01-31T01:44:03;99182.03;;;0.81;69.38
71476;BME280;59286;59.274;17.974;2023-01-31T01:46:35;99155.06;;;0.58;69.47
71476;BME280;59286;59.274;17.974;2023-01-31T01:49:05;99179.00;;;0.69;70.58
71476;BME280;59286;59.274;17.974;2023-01-31T01:51:37;99163.09;;;0.52;71.42
71476;BME280;59286;59.274;17.974;2023-01-31T01:54:07;99161.81;;;0.44;71.47
71476;BME280;59286;59.274;17.974;2023-01-31T01:56:38;99192.19;;;0.52;71.46
71476;BME280;59286;59.274;17.974;2023-01-31T01:59:09;99179.63;;;0.41;71.62
71476;BME280;59286;59.274;17.974;2023-01-31T02:01:37;99173.94;;;0.34;71.42
71476;BME280;59286;59.274;17.974;2023-01-31T02:04:05;99189.94;;;0.41;72.23
71476;BME280;59286;59.274;17.974;2023-01-31T02:06:31;99167.28;;;0.23;72.13
71476;BME280;59286;59.274;17.974;2023-01-31T02:08:57;99191.50;;;0.32;71.44
71476;BME280;59286;59.274;17.974;2023-01-31T02:11:26;99195.06;;;0.36;71.75
71476;BME280;59286;59.274;17.974;2023-01-31T02:13:56;99214.91;;;0.40;71.56
71476;BME280;59286;59.274;17.974;2023-01-31T02:16:24;99178.13;;;0.15;71.49
71476;BME280;59286;59.274;17.974;2023-01-31T02:18:49;99209.78;;;0.30;71.32
71476;BME280;59286;59.274;17.974;2023-01-31T02:29:52;99233.47;;;0.32;71.68
71476;BME280;59286;59.274;17.974;2023-01-31T02:43:38;99220.91;;;0.11;72.81
71476;BME280;59286;59.274;17.974;2023-01-31T02:46:35;99227.31;;;0.08;72.43
71476;BME280;59286;59.274;17.974;2023-01-31T02:49:14;99214.47;;;-0.07;73.13
71476;BME280;59286;59.274;17.974;2023-01-31T02:52:05;99242.00;;;0.18;72.56
71476;BME280;59286;59.274;17.974;2023-01-31T02:57:49;99236.34;;;0.16;71.91
71476;BME280;59286;59.274;17.974;2023-01-31T03:00:16;99216.53;;;0.01;72.06
71476;BME280;59286;59.274;17.974;2023-01-31T03:02:42;99230.69;;;0.09;72.26
71476;BME280;59286;59.274;17.974;2023-01-31T03:05:13;99216.28;;;-0.08;72.38
71476;BME280;59286;59.274;17.974;2023-01-31T03:07:40;99240.47;;;0.07;72.54
71476;BME280;59286;59.274;17.974;2023-01-31T03:12:59;99251.00;;;0.15;71.70
71476;BME280;59286;59.274;17.974;2023-01-31T03:15:50;99242.28;;;0.01;72.01
71476;BME280;59286;59.274;17.974;2023-01-31T03:18:48;99235.31;;;-0.04;72.44
71476;BME280;59286;59.274;17.974;2023-01-31T03:21:38;99255.66;;;0.03;71.60
71476;BME280;59286;59.274;17.974;2023-01-31T03:24:05;99233.28;;;-0.12;71.99
71476;BME280;59286;59.274;17.974;2023-01-31T03:26:33;99247.66;;;-0.06;72.61
71476;BME280;59286;59.274;17.974;2023-01-31T03:29:00;99254.91;;;-0.08;72.83
71476;BME280;59286;59.274;17.974;2023-01-31T03:31:35;99269.56;;;-0.03;72.43
71476;BME280;59286;59.274;17.974;2023-01-31T03:34:05;99261.06;;;-0.24;72.87
71476;BME280;59286;59.274;17.974;2023-01-31T03:36:44;99289.16;;;-0.02;72.63
71476;BME280;59286;59.274;17.974;2023-01-31T03:41:52;99283.22;;;-0.08;73.04
71476;BME280;59286;59.274;17.974;2023-01-31T03:46:49;99275.22;;;-0.21;73.52
71476;BME280;59286;59.274;17.974;2023-01-31T03:49:16;99296.09;;;-0.08;72.73
71476;BME280;59286;59.274;17.974;2023-01-31T03:51:50;99265.19;;;-0.23;73.30
71476;BME280;59286;59.274;17.974;2023-01-31T03:54:22;99292.50;;;-0.07;73.70
71476;BME280;59286;59.274;17.974;2023-01-31T03:57:02;99274.97;;;-0.25;73.79
71476;BME280;59286;59.274;17.974;2023-01-31T03:59:33;99309.22;;;-0.09;74.03
71476;BME280;59286;59.274;17.974;2023-01-31T04:02:02;99237.88;;;-0.49;73.47
71476;BME280;59286;59.274;17.974;2023-01-31T04:04:35;99289.91;;;-0.22;73.91
71476;BME280;59286;59.274;17.974;2023-01-31T04:07:02;99315.66;;;-0.07;73.74
71476;BME280;59286;59.274;17.974;2023-01-31T04:09:28;99318.25;;;-0.07;72.91
71476;BME280;59286;59.274;17.974;2023-01-31T04:11:53;99261.03;;;-0.44;73.44
71476;BME280;59286;59.274;17.974;2023-01-31T04:14:18;99303.31;;;-0.10;73.35
71476;BME280;59286;59.274;17.974;2023-01-31T04:16:44;99315.63;;;-0.17;74.55
71476;BME280;59286;59.274;17.974;2023-01-31T04:19:09;99328.78;;;-0.03;73.07
71476;BME280;59286;59.274;17.974;2023-01-31T04:21:35;99324.44;;;-0.03;73.29
71476;BME280;59286;59.274;17.974;2023-01-31T04:24:00;99307.91;;;-0.17;73.19
71476;BME280;59286;59.274;17.974;2023-01-31T04:26:29;99327.53;;;-0.01;73.49
71476;BME280;59286;59.274;17.974;2023-01-31T04:28:54;99297.09;;;-0.19;73.48
71476;BME280;59286;59.274;17.974;2023-01-31T04:31:19;99299.66;;;-0.19;72.66
71476;BME280;59286;59.274;17.974;2023-01-31T04:33:45;99309.47;;;-0.16;73.07
71476;BME280;59286;59.274;17.974;2023-01-31T04:36:10;99318.72;;;-0.15;73.49
71476;BME280;59286;59.274;17.974;2023-01-31T04:38:36;99308.44;;;-0.20;73.48
71476;BME280;59286;59.274;17.974;2023-01-31T04:41:01;99261.25;;;-0.50;73.99
71476;BME280;59286;59.274;17.974;2023-01-31T04:43:26;99298.09;;;-0.30;74.39
71476;BME280;59286;59.274;17.974;2023-01-31T04:45:52;99321.81;;;-0.23;73.77
71476;BME280;59286;59.274;17.974;2023-01-31T04:48:17;99312.03;;;-0.26;74.17
71476;BME280;59286;59.274;17.974;2023-01-31T04:50:43;99295.00;;;-0.37;74.29
71476;BME280;59286;59.274;17.974;2023-01-31T04:53:08;99327.50;;;-0.21;73.51
71476;BME280;59286;59.274;17.974;2023-01-31T04:55:34;99286.78;;;-0.39;73.50
71476;BME280;59286;59.274;17.974;2023-01-31T04:57:59;99279.56;;;-0.42;72.76
71476;BME280;59286;59.274;17.974;2023-01-31T05:00:24;99329.03;;;-0.15;73.59
71476;BME280;59286;59.274;17.974;2023-01-31T05:02:50;99303.28;;;-0.25;73.77
71476;BME280;59286;59.274;17.974;2023-01-31T05:05:16;99339.59;;;-0.11;73.49
71476;BME280;59286;59.274;17.974;2023-01-31T05:07:43;99295.53;;;-0.40;73.76
71476;BME280;59286;59.274;17.974;2023-01-31T05:10:08;99311.00;;;-0.25;73.41
71476;BME280;59286;59.274;17.974;2023-01-31T05:12:34;99286.50;;;-0.47;73.92
71476;BME280;59286;59.274;17.974;2023-01-31T05:14:59;99298.59;;;-0.43;73.94
71476;BME280;59286;59.274;17.974;2023-01-31T05:17:25;99326.41;;;-0.35;73.94
71476;BME280;59286;59.274;17.974;2023-01-31T05:19:54;99341.38;;;-0.22;73.12
71476;BME280;59286;59.274;17.974;2023-01-31T05:22:20;99324.88;;;-0.31;73.46
71476;BME280;59286;59.274;17.974;2023-01-31T05:24:47;99273.88;;;-0.64;73.99
71476;BME280;59286;59.274;17.974;2023-01-31T05:27:13;99345.00;;;-0.23;73.65
71476;BME280;59286;59.274;17.974;2023-01-31T05:29:39;99291.88;;;-0.64;73.45
71476;BME280;59286;59.274;17.974;2023-01-31T05:32:04;99303.47;;;-0.46;73.33
71476;BME280;59286;59.274;17.974;2023-01-31T05:34:30;99322.28;;;-0.41;72.92
71476;BME280;59286;59.274;17.974;2023-01-31T05:36:57;99360.97;;;-0.16;72.52
71476;BME280;59286;59.274;17.974;2023-01-31T05:39:23;99334.66;;;-0.33;72.90
71476;BME280;59286;59.274;17.974;2023-01-31T05:41:48;99326.63;;;-0.46;72.87
71476;BME280;59286;59.274;17.974;2023-01-31T05:44:13;99324.31;;;-0.53;73.06
71476;BME280;59286;59.274;17.974;2023-01-31T05:46:40;99366.34;;;-0.22;73.15
71476;BME280;59286;59.274;17.974;2023-01-31T05:49:06;99372.78;;;-0.25;73.20
71476;BME280;59286;59.274;17.974;2023-01-31T05:51:31;99327.41;;;-0.51;72.65
71476;BME280;59286;59.274;17.974;2023-01-31T05:53:57;99328.44;;;-0.52;72.90
71476;BME280;59286;59.274;17.974;2023-01-31T05:56:23;99361.41;;;-0.39;72.80
71476;BME280;59286;59.274;17.974;2023-01-31T05:58:48;99348.00;;;-0.51;73.34
71476;BME280;59286;59.274;17.974;2023-01-31T06:01:23;99316.75;;;-0.74;73.06
71476;BME280;59286;59.274;17.974;2023-01-31T06:03:49;99352.59;;;-0.58;73.21
71476;BME280;59286;59.274;17.974;2023-01-31T06:06:14;99338.44;;;-0.65;73.21
71476;BME280;59286;59.274;17.974;2023-01-31T06:08:40;99349.00;;;-0.62;73.49
71476;BME280;59286;59.274;17.974;2023-01-31T06:11:10;99338.66;;;-0.72;73.84
71476;BME280;59286;59.274;17.974;2023-01-31T06:13:37;99304.63;;;-0.89;73.59
71476;BME280;59286;59.274;17.974;2023-01-31T06:16:04;99339.16;;;-0.75;73.69
71476;BME280;59286;59.274;17.974;2023-01-31T06:18:30;99319.53;;;-0.91;73.68
71476;BME280;59286;59.274;17.974;2023-01-31T06:20:55;99328.28;;;-0.87;73.53
71476;BME280;59286;59.274;17.974;2023-01-31T06:23:21;99361.34;;;-0.59;73.66
71476;BME280;59286;59.274;17.974;2023-01-31T06:25:53;99301.50;;;-1.01;73.02
71476;BME280;59286;59.274;17.974;2023-01-31T06:28:20;99386.34;;;-0.49;74.12
71476;BME280;59286;59.274;17.974;2023-01-31T06:30:45;99360.25;;;-0.73;73.60
71476;BME280;59286;59.274;17.974;2023-01-31T06:33:11;99348.09;;;-0.87;73.53
71476;BME280;59286;59.274;17.974;2023-01-31T06:35:37;99380.84;;;-0.68;73.70
71476;BME280;59286;59.274;17.974;2023-01-31T06:38:03;99366.31;;;-0.94;74.60
71476;BME280;59286;59.274;17.974;2023-01-31T06:40:29;99362.19;;;-0.95;74.42
71476;BME280;59286;59.274;17.974;2023-01-31T06:42:55;99383.34;;;-0.88;74.42
71476;BME280;59286;59.274;17.974;2023-01-31T06:45:21;99389.47;;;-0.89;74.64
71476;BME280;59286;59.274;17.974;2023-01-31T06:47:46;99368.34;;;-1.01;74.52
71476;BME280;59286;59.274;17.974;2023-01-31T06:50:12;99344.59;;;-1.18;74.91
71476;BME280;59286;59.274;17.974;2023-01-31T06:52:38;99378.41;;;-0.94;74.66
71476;BME280;59286;59.274;17.974;2023-01-31T06:55:04;99389.22;;;-0.87;74.17
71476;BME280;59286;59.274;17.974;2023-01-31T06:57:29;99361.16;;;-0.99;74.54
71476;BME280;59286;59.274;17.974;2023-01-31T06:59:54;99361.09;;;-1.09;74.13
71476;BME280;59286;59.274;17.974;2023-01-31T07:02:20;99398.25;;;-0.85;74.83
71476;BME280;59286;59.274;17.974;2023-01-31T07:04:45;99364.97;;;-1.07;74.76
71476;BME280;59286;59.274;17.974;2023-01-31T07:07:10;99386.88;;;-0.99;74.67
71476;BME280;59286;59.274;17.974;2023-01-31T07:09:36;99385.84;;;-0.98;74.74
71476;BME280;59286;59.274;17.974;2023-01-31T07:12:01;99403.41;;;-0.80;74.17
71476;BME280;59286;59.274;17.974;2023-01-31T07:14:26;99395.69;;;-0.85;74.27
71476;BME280;59286;59.274;17.974;2023-01-31T07:16:52;99405.25;;;-0.80;74.20
71476;BME280;59286;59.274;17.974;2023-01-31T07:19:17;99416.84;;;-0.73;74.19
71476;BME280;59286;59.274;17.974;2023-01-31T07:21:42;99415.03;;;-0.72;74.16
71476;BME280;59286;59.274;17.974;2023-01-31T07:24:08;99384.09;;;-0.87;73.59
71476;BME280;59286;59.274;17.974;2023-01-31T07:26:34;99393.19;;;-0.75;73.64
71476;BME280;59286;59.274;17.974;2023-01-31T07:28:59;99384.16;;;-0.77;74.02
71476;BME280;59286;59.274;17.974;2023-01-31T07:31:24;99386.75;;;-0.72;73.66
71476;BME280;59286;59.274;17.974;2023-01-31T07:33:50;99420.53;;;-0.54;73.45
71476;BME280;59286;59.274;17.974;2023-01-31T07:36:16;99395.25;;;-0.67;73.11
71476;BME280;59286;59.274;17.974;2023-01-31T07:38:44;99418.53;;;-0.47;73.10
71476;BME280;59286;59.274;17.974;2023-01-31T07:41:10;99394.31;;;-0.51;72.31
71476;BME280;59286;59.274;17.974;2023-01-31T07:43:35;99399.00;;;-0.38;72.40
71476;BME280;59286;59.274;17.974;2023-01-31T07:46:01;99413.47;;;-0.22;71.13
71476;BME280;59286;59.274;17.974;2023-01-31T07:48:27;99403.66;;;-0.30;71.11
71476;BME280;59286;59.274;17.974;2023-01-31T07:51:00;99414.00;;;-0.20;71.25
71476;BME280;59286;59.274;17.974;2023-01-31T07:53:32;99417.63;;;-0.16;70.89
71476;BME280;59286;59.274;17.974;2023-01-31T07:58:35;99414.78;;;-0.09;70.18
71476;BME280;59286;59.274;17.974;2023-01-31T08:01:01;99387.69;;;-0.32;70.13
71476;BME280;59286;59.274;17.974;2023-01-31T08:03:45;99434.38;;;-0.08;69.40
71476;BME280;59286;59.274;17.974;2023-01-31T08:06:11;99414.25;;;-0.26;70.26
71476;BME280;59286;59.274;17.974;2023-01-31T08:08:39;99429.44;;;-0.20;70.25
71476;BME280;59286;59.274;17.974;2023-01-31T08:11:05;99401.78;;;-0.44;71.14
71476;BME280;59286;59.274;17.974;2023-01-31T08:13:32;99399.22;;;-0.49;70.55
71476;BME280;59286;59.274;17.974;2023-01-31T08:15:58;99423.41;;;-0.45;71.35
71476;BME280;59286;59.274;17.974;2023-01-31T08:18:24;99392.72;;;-0.62;71.11
71476;BME280;59286;59.274;17.974;2023-01-31T08:20:49;99435.84;;;-0.32;71.20
71476;BME280;59286;59.274;17.974;2023-01-31T08:23:14;99406.94;;;-0.44;70.84
71476;BME280;59286;59.274;17.974;2023-01-31T08:25:40;99413.88;;;-0.45;70.49
71476;BME280;59286;59.274;17.974;2023-01-31T08:28:05;99408.00;;;-0.35;70.74
71476;BME280;59286;59.274;17.974;2023-01-31T08:30:30;99407.00;;;-0.34;70.56
71476;BME280;59286;59.274;17.974;2023-01-31T08:32:56;99432.03;;;-0.15;70.10
71476;BME280;59286;59.274;17.974;2023-01-31T08:35:23;99436.69;;;-0.12;69.76
71476;BME280;59286;59.274;17.974;2023-01-31T08:37:49;99417.88;;;-0.17;69.68
71476;BME280;59286;59.274;17.974;2023-01-31T08:40:14;99416.59;;;-0.10;69.79
71476;BME280;59286;59.274;17.974;2023-01-31T08:42:39;99411.47;;;-0.10;68.67
71476;BME280;59286;59.274;17.974;2023-01-31T08:45:05;99406.31;;;-0.10;68.64
71476;BME280;59286;59.274;17.974;2023-01-31T08:47:32;99426.94;;;0.06;67.58
71476;BME280;59286;59.274;17.974;2023-01-31T08:49:57;99434.94;;;0.19;67.96
71476;BME280;59286;59.274;17.974;2023-01-31T08:52:22;99397.84;;;0.05;67.84
71476;BME280;59286;59.274;17.974;2023-01-31T08:54:47;99430.59;;;0.25;67.91
71476;BME280;59286;59.274;17.974;2023-01-31T08:57:13;99403.78;;;0.16;67.33
71476;BME280;59286;59.274;17.974;2023-01-31T08:59:38;99412.28;;;0.26;66.98
71476;BME280;59286;59.274;17.974;2023-01-31T09:02:03;99405.59;;;0.20;66.58
71476;BME280;59286;59.274;17.974;2023-01-31T09:04:29;99412.06;;;0.28;66.62
71476;BME280;59286;59.274;17.974;2023-01-31T09:06:54;99419.25;;;0.31;65.97
71476;BME280;59286;59.274;17.974;2023-01-31T09:09:20;99416.69;;;0.31;65.80
71476;BME280;59286;59.274;17.974;2023-01-31T09:11:45;99418.75;;;0.34;66.46
71476;BME280;59286;59.274;17.974;2023-01-31T09:14:10;99423.91;;;0.39;65.49
71476;BME280;59286;59.274;17.974;2023-01-31T09:16:37;99418.50;;;0.40;65.57
71476;BME280;59286;59.274;17.974;2023-01-31T09:19:02;99425.75;;;0.48;65.27
71476;BME280;59286;59.274;17.974;2023-01-31T09:21:27;99438.88;;;0.52;65.02
71476;BME280;59286;59.274;17.974;2023-01-31T09:23:57;99423.94;;;0.59;65.43
71476;BME280;59286;59.274;17.974;2023-01-31T09:26:23;99393.00;;;0.39;64.52
71476;BME280;59286;59.274;17.974;2023-01-31T09:28:49;99411.56;;;0.61;64.64
71476;BME280;59286;59.274;17.974;2023-01-31T09:31:17;99386.53;;;0.41;64.49
71476;BME280;59286;59.274;17.974;2023-01-31T09:33:43;99424.44;;;0.66;65.30
71476;BME280;59286;59.274;17.974;2023-01-31T09:36:11;99414.13;;;0.66;64.48
71476;BME280;59286;59.274;17.974;2023-01-31T09:38:37;99397.38;;;0.63;63.92
71476;BME280;59286;59.274;17.974;2023-01-31T09:41:05;99397.38;;;0.63;64.25
71476;BME280;59286;59.274;17.974;2023-01-31T09:43:39;99394.03;;;0.68;63.57
71476;BME280;59286;59.274;17.974;2023-01-31T09:46:12;99375.47;;;0.51;63.37
71476;BME280;59286;59.274;17.974;2023-01-31T09:48:41;99362.06;;;0.49;63.73
71476;BME280;59286;59.274;17.974;2023-01-31T09:51:09;99369.25;;;0.62;63.07
71476;BME280;59286;59.274;17.974;2023-01-31T09:53:38;99402.25;;;0.85;62.64
71476;BME280;59286;59.274;17.974;2023-01-31T10:01:13;99400.44;;;0.95;63.44
71476;BME280;59286;59.274;17.974;2023-01-31T10:04:15;99393.72;;;0.99;63.13
71476;BME280;59286;59.274;17.974;2023-01-31T10:09:43;99381.59;;;1.05;63.28
71476;BME280;59286;59.274;17.974;2023-01-31T10:14:51;99369.50;;;1.01;62.55
71476;BME280;59286;59.274;17.974;2023-01-31T10:17:29;99384.44;;;1.14;62.44
71476;BME280;59286;59.274;17.974;2023-01-31T10:22:38;99368.69;;;1.15;62.69
71476;BME280;59286;59.274;17.974;2023-01-31T10:27:56;99355.72;;;1.25;62.27
71476;BME280;59286;59.274;17.974;2023-01-31T10:30:28;99365.50;;;1.33;61.49
71476;BME280;59286;59.274;17.974;2023-01-31T10:33:02;99374.56;;;1.36;61.28
71476;BME280;59286;59.274;17.974;2023-01-31T10:35:37;99355.22;;;1.28;60.50
71476;BME280;59286;59.274;17.974;2023-01-31T10:38:21;99360.63;;;1.32;61.02
71476;BME280;59286;59.274;17.974;2023-01-31T10:40:56;99356.72;;;1.39;61.35
71476;BME280;59286;59.274;17.974;2023-01-31T10:44:02;99352.59;;;1.43;60.32
71476;BME280;59286;59.274;17.974;2023-01-31T10:46:30;99319.09;;;1.28;60.78
71476;BME280;59286;59.274;17.974;2023-01-31T10:48:55;99306.72;;;1.20;60.04
71476;BME280;59286;59.274;17.974;2023-01-31T10:54:46;99349.66;;;1.60;59.79
71476;BME280;59286;59.274;17.974;2023-01-31T10:57:14;99341.66;;;1.61;60.20
71476;BME280;59286;59.274;17.974;2023-01-31T10:59:42;99341.66;;;1.61;58.75
71476;BME280;59286;59.274;17.974;2023-01-31T11:02:21;99317.97;;;1.44;59.26
71476;BME280;59286;59.274;17.974;2023-01-31T11:04:49;99334.69;;;1.62;59.30
71476;BME280;59286;59.274;17.974;2023-01-31T11:07:15;99326.69;;;1.53;59.07
71476;BME280;59286;59.274;17.974;2023-01-31T11:09:52;99325.13;;;1.57;59.58
71476;BME280;59286;59.274;17.974;2023-01-31T11:12:19;99337.47;;;1.70;58.32
71476;BME280;59286;59.274;17.974;2023-01-31T11:14:45;99312.78;;;1.54;59.14
71476;BME280;59286;59.274;17.974;2023-01-31T11:17:17;99329.72;;;1.70;58.75
71476;BME280;59286;59.274;17.974;2023-01-31T11:19:53;99327.13;;;1.70;58.78
71476;BME280;59286;59.274;17.974;2023-01-31T11:22:25;99324.50;;;1.75;58.40
71476;BME280;59286;59.274;17.974;2023-01-31T11:24:52;99295.69;;;1.63;58.72
71476;BME280;59286;59.274;17.974;2023-01-31T11:27:40;99324.00;;;1.78;58.76
71476;BME280;59286;59.274;17.974;2023-01-31T11:30:20;99309.06;;;1.70;58.52
71476;BME280;59286;59.274;17.974;2023-01-31T11:32:47;99301.88;;;1.62;57.65
71476;BME280;59286;59.274;17.974;2023-01-31T11:40:20;99286.97;;;1.54;59.50
71476;BME280;59286;59.274;17.974;2023-01-31T11:45:42;99289.69;;;1.68;58.97
71476;BME280;59286;59.274;17.974;2023-01-31T11:48:24;99276.56;;;1.64;58.13
71476;BME280;59286;59.274;17.974;2023-01-31T11:50:53;99289.97;;;1.71;57.50
71476;BME280;59286;59.274;17.974;2023-01-31T11:53:21;99263.22;;;1.52;57.17
71476;BME280;59286;59.274;17.974;2023-01-31T11:55:50;99257.06;;;1.43;57.19
71476;BME280;59286;59.274;17.974;2023-01-31T11:58:23;99285.91;;;1.60;57.59
71476;BME280;59286;59.274;17.974;2023-01-31T12:00:54;99267.81;;;1.60;57.61
71476;BME280;59286;59.274;17.974;2023-01-31T12:03:21;99256.47;;;1.56;57.79
71476;BME280;59286;59.274;17.974;2023-01-31T12:06:01;99247.72;;;1.52;57.63
71476;BME280;59286;59.274;17.974;2023-01-31T12:08:35;99257.00;;;1.58;58.26
71476;BME280;59286;59.274;17.974;2023-01-31T12:13:31;99225.50;;;1.51;57.93
71476;BME280;59286;59.274;17.974;2023-01-31T12:16:10;99222.94;;;1.51;58.13
71476;BME280;59286;59.274;17.974;2023-01-31T12:26:38;99221.81;;;1.67;57.49
71476;BME280;59286;59.274;17.974;2023-01-31T12:31:52;99201.16;;;1.67;57.53
71476;BME280;59286;59.274;17.974;2023-01-31T12:39:50;99216.63;;;1.67;57.02
71476;BME280;59286;59.274;17.974;2023-01-31T12:48:14;99203.19;;;1.70;56.79
71476;BME280;59286;59.274;17.974;2023-01-31T12:53:49;99181.06;;;1.59;58.05
71476;BME280;59286;59.274;17.974;2023-01-31T12:56:44;99196.47;;;1.69;57.52
71476;BME280;59286;59.274;17.974;2023-01-31T13:01:56;99150.28;;;1.34;57.08
71476;BME280;59286;59.274;17.974;2023-01-31T13:06:59;99190.25;;;1.70;57.00
71476;BME280;59286;59.274;17.974;2023-01-31T13:09:30;99198.47;;;1.77;56.73
71476;BME280;59286;59.274;17.974;2023-01-31T13:12:05;99169.50;;;1.52;56.96
71476;BME280;59286;59.274;17.974;2023-01-31T13:14:36;99201.06;;;1.77;56.00
71476;BME280;59286;59.274;17.974;2023-01-31T13:17:05;99164.78;;;1.59;56.39
71476;BME280;59286;59.274;17.974;2023-01-31T13:19:33;99175.91;;;1.59;57.23
71476;BME280;59286;59.274;17.974;2023-01-31T13:22:10;99165.91;;;1.48;57.54
71476;BME280;59286;59.274;17.974;2023-01-31T13:24:39;99166.25;;;1.36;56.99
71476;BME280;59286;59.274;17.974;2023-01-31T13:27:19;99169.88;;;1.35;57.39
71476;BME280;59286;59.274;17.974;2023-01-31T13:29:54;99185.88;;;1.37;58.05
71476;BME280;59286;59.274;17.974;2023-01-31T13:32:37;99179.19;;;1.31;58.26
71476;BME280;59286;59.274;17.974;2023-01-31T13:35:23;99176.88;;;1.30;58.85
71476;BME280;59286;59.274;17.974;2023-01-31T13:37:53;99155.56;;;1.14;58.24
71476;BME280;59286;59.274;17.974;2023-01-31T13:40:25;99180.56;;;1.19;58.81
71476;BME280;59286;59.274;17.974;2023-01-31T13:42:53;99144.34;;;0.95;59.33
71476;BME280;59286;59.274;17.974;2023-01-31T13:45:29;99142.28;;;0.92;59.02
71476;BME280;59286;59.274;17.974;2023-01-31T13:48:06;99174.94;;;1.12;59.48
71476;BME280;59286;59.274;17.974;2023-01-31T13:50:40;99158.22;;;1.04;59.49
71476;BME280;59286;59.274;17.974;2023-01-31T13:53:14;99175.94;;;1.16;59.18
71476;BME280;59286;59.274;17.974;2023-01-31T13:55:44;99161.03;;;1.08;59.88
71476;BME280;59286;59.274;17.974;2023-01-31T13:58:21;99166.91;;;1.13;58.90
71476;BME280;59286;59.274;17.974;2023-01-31T14:01:10;99137.09;;;0.92;59.43
71476;BME280;59286;59.274;17.974;2023-01-31T14:11:50;99119.69;;;0.74;59.39
71476;BME280;59286;59.274;17.974;2023-01-31T14:20:24;99142.31;;;0.87;60.34
71476;BME280;59286;59.274;17.974;2023-01-31T14:25:49;99103.00;;;0.61;60.14
71476;BME280;59286;59.274;17.974;2023-01-31T14:28:14;99128.47;;;0.68;60.38
71476;BME280;59286;59.274;17.974;2023-01-31T14:30:41;99116.91;;;0.60;60.39
71476;BME280;59286;59.274;17.974;2023-01-31T14:33:16;99110.78;;;0.46;61.20
71476;BME280;59286;59.274;17.974;2023-01-31T14:36:01;99131.34;;;0.56;60.91
71476;BME280;59286;59.274;17.974;2023-01-31T14:41:19;99121.84;;;0.47;61.20
71476;BME280;59286;59.274;17.974;2023-01-31T14:46:36;99117.03;;;0.35;62.44
71476;BME280;59286;59.274;17.974;2023-01-31T14:49:34;99116.50;;;0.33;62.18
71476;BME280;59286;59.274;17.974;2023-01-31T14:52:57;99125.25;;;0.32;62.73
71476;BME280;59286;59.274;17.974;2023-01-31T14:55:20;99120.19;;;0.12;63.05
71476;BME280;59286;59.274;17.974;2023-01-31T14:57:51;99105.53;;;0.03;63.92
71476;BME280;59286;59.274;17.974;2023-01-31T15:00:29;99112.75;;;0.06;63.71
71476;BME280;59286;59.274;17.974;2023-01-31T15:03:14;99091.41;;;-0.15;64.31